Isle Of Innisfree — EIBW — position and weather

sailwx.info

Track history (hours):
 
Tides and Currents Weather Stations Pressure Air Temp Water Temp Dewpoint Dewpoint Depression Visibility Wind Speed Wind Dir Waves Ship Positions

Isle Of Innisfree

Operator: Irish Ferries

Last reported at 2019-Aug-19 01:26 UTC. Time now 2019-Aug-20 09:53 UTC.
Position N 48°04' W 004°45'.

Length 36 m; draft 6.6 m.

Type: Fishing. MMSI: 250102800.

Date/timePositionNaut miles runAvg speedWind from/ knotsBaromVisibWave heightAir tempDewpointWater temp
2019-Aug-19 01:26N 48°04' W 004°45'4 9.3
2019-Aug-19 01:01N 48°05' W 004°40'5 9.9
2019-Aug-19 00:31N 48°06' W 004°32'510.1
2019-Aug-19 00:00N 48°07' W 004°25'4 7.5
2019-Aug-18 23:30N 48°06' W 004°19'0 0.0
2019-Aug-18 23:00N 48°06' W 004°19'0 0.0
2019-Aug-18 22:30N 48°06' W 004°19'0 0.0
2019-Aug-18 22:00N 48°06' W 004°19'0 0.0
2019-Aug-18 21:30N 48°06' W 004°19'0 0.0
2019-Aug-18 21:00N 48°06' W 004°19'0 0.0
2019-Aug-18 20:30N 48°06' W 004°19'0 0.0
2019-Aug-18 20:00N 48°06' W 004°19'0 0.0
2019-Aug-18 19:30N 48°06' W 004°19'0 0.0
2019-Aug-18 19:00N 48°06' W 004°19'2 4.5
2019-Aug-18 18:30N 48°07' W 004°22'510.2
2019-Aug-18 18:00N 48°07' W 004°30'510.5
2019-Aug-18 17:30N 48°05' W 004°38'5 9.3
2019-Aug-18 17:00N 48°04' W 004°44'510.1
2019-Aug-18 16:31N 47°60' W 004°49'510.9
2019-Aug-18 16:01N 47°56' W 004°54'611.0
2019-Aug-18 15:31N 47°51' W 004°59'  
2019-Aug-09 20:13N 48°02' W 004°46'1 6.7
2019-Aug-09 20:00N 48°03' W 004°46'4 8.1
2019-Aug-09 19:31N 48°05' W 004°41'5 9.2
2019-Aug-09 19:00N 48°06' W 004°34'5 9.1
2019-Aug-09 18:30N 48°07' W 004°27'5 9.1
2019-Aug-09 18:00N 48°07' W 004°21'1 2.7
2019-Aug-09 17:31N 48°06' W 004°19'0 0.0
2019-Aug-09 17:00N 48°06' W 004°19'0 0.0
2019-Aug-09 16:31N 48°06' W 004°19'0 0.0
2019-Aug-09 16:01N 48°06' W 004°19'0 0.0
2019-Aug-09 15:30N 48°06' W 004°19'0 0.0
2019-Aug-09 15:00N 48°06' W 004°19'0 0.0
2019-Aug-09 14:30N 48°06' W 004°19'0 0.3
2019-Aug-09 14:00N 48°06' W 004°20'0 0.0
2019-Aug-09 13:31N 48°06' W 004°20'0 0.0
2019-Aug-09 13:01N 48°06' W 004°20'0 0.0
2019-Aug-09 12:30N 48°06' W 004°20'0 0.0
2019-Aug-09 12:01N 48°06' W 004°20'0 0.0
2019-Aug-09 11:30N 48°06' W 004°20'0 0.3
2019-Aug-09 11:00N 48°06' W 004°19'0 0.0
2019-Aug-09 10:30N 48°06' W 004°19'0 0.0
2019-Aug-09 10:01N 48°06' W 004°19'0 0.0
2019-Aug-09 09:30N 48°06' W 004°19'0 0.0
2019-Aug-09 09:00N 48°06' W 004°19'0 0.0
2019-Aug-09 08:30N 48°06' W 004°19'0 0.0
2019-Aug-09 08:00N 48°06' W 004°19'0 0.0
2019-Aug-09 07:31N 48°06' W 004°19'0 0.0
2019-Aug-09 07:00N 48°06' W 004°19'0 0.0
2019-Aug-09 06:30N 48°06' W 004°19'0 0.0
2019-Aug-09 06:01N 48°06' W 004°19'0 0.0
2019-Aug-09 05:31N 48°06' W 004°19'0 0.0
2019-Aug-09 05:00N 48°06' W 004°19'0 0.0
2019-Aug-09 04:31N 48°06' W 004°19'0 0.0
2019-Aug-09 04:01N 48°06' W 004°19'0 0.0
2019-Aug-09 03:30N 48°06' W 004°19'0 0.0
2019-Aug-09 03:00N 48°06' W 004°19'0 0.0
2019-Aug-09 02:00N 48°06' W 004°19'0 0.0
2019-Aug-09 01:30N 48°06' W 004°19'  
Track history (hours):
 
Tides and Currents Weather Stations Pressure Air Temp Water Temp Dewpoint Dewpoint Depression Visibility Wind Speed Wind Dir Waves Ship Positions

Isle Of Innisfree

Operator: Irish Ferries

Last reported at 2019-Aug-19 01:26 UTC. Time now 2019-Aug-20 09:53 UTC.
Position N 48°04' W 004°45'.

Length 36 m; draft 6.6 m.

Type: Fishing. MMSI: 250102800.

Date/timePositionNaut miles runAvg speedWind from/ knotsBaromVisibWave heightAir tempDewpointWater temp
2019-Aug-19 01:26N 48°04' W 004°45'4 9.3
2019-Aug-19 01:01N 48°05' W 004°40'5 9.9
2019-Aug-19 00:31N 48°06' W 004°32'510.1
2019-Aug-19 00:00N 48°07' W 004°25'4 7.5
2019-Aug-18 23:30N 48°06' W 004°19'0 0.0
2019-Aug-18 23:00N 48°06' W 004°19'0 0.0
2019-Aug-18 22:30N 48°06' W 004°19'0 0.0
2019-Aug-18 22:00N 48°06' W 004°19'0 0.0
2019-Aug-18 21:30N 48°06' W 004°19'0 0.0
2019-Aug-18 21:00N 48°06' W 004°19'0 0.0
2019-Aug-18 20:30N 48°06' W 004°19'0 0.0
2019-Aug-18 20:00N 48°06' W 004°19'0 0.0
2019-Aug-18 19:30N 48°06' W 004°19'0 0.0
2019-Aug-18 19:00N 48°06' W 004°19'2 4.5
2019-Aug-18 18:30N 48°07' W 004°22'510.2
2019-Aug-18 18:00N 48°07' W 004°30'510.5
2019-Aug-18 17:30N 48°05' W 004°38'5 9.3
2019-Aug-18 17:00N 48°04' W 004°44'510.1
2019-Aug-18 16:31N 47°60' W 004°49'510.9
2019-Aug-18 16:01N 47°56' W 004°54'611.0
2019-Aug-18 15:31N 47°51' W 004°59'  
2019-Aug-09 20:13N 48°02' W 004°46'1 6.7
2019-Aug-09 20:00N 48°03' W 004°46'4 8.1
2019-Aug-09 19:31N 48°05' W 004°41'5 9.2
2019-Aug-09 19:00N 48°06' W 004°34'5 9.1
2019-Aug-09 18:30N 48°07' W 004°27'5 9.1
2019-Aug-09 18:00N 48°07' W 004°21'1 2.7
2019-Aug-09 17:31N 48°06' W 004°19'0 0.0
2019-Aug-09 17:00N 48°06' W 004°19'0 0.0
2019-Aug-09 16:31N 48°06' W 004°19'0 0.0
2019-Aug-09 16:01N 48°06' W 004°19'0 0.0
2019-Aug-09 15:30N 48°06' W 004°19'0 0.0
2019-Aug-09 15:00N 48°06' W 004°19'0 0.0
2019-Aug-09 14:30N 48°06' W 004°19'0 0.3
2019-Aug-09 14:00N 48°06' W 004°20'0 0.0
2019-Aug-09 13:31N 48°06' W 004°20'0 0.0
2019-Aug-09 13:01N 48°06' W 004°20'0 0.0
2019-Aug-09 12:30N 48°06' W 004°20'0 0.0
2019-Aug-09 12:01N 48°06' W 004°20'0 0.0
2019-Aug-09 11:30N 48°06' W 004°20'0 0.3
2019-Aug-09 11:00N 48°06' W 004°19'0 0.0
2019-Aug-09 10:30N 48°06' W 004°19'0 0.0
2019-Aug-09 10:01N 48°06' W 004°19'0 0.0
2019-Aug-09 09:30N 48°06' W 004°19'0 0.0
2019-Aug-09 09:00N 48°06' W 004°19'0 0.0
2019-Aug-09 08:30N 48°06' W 004°19'0 0.0
2019-Aug-09 08:00N 48°06' W 004°19'0 0.0
2019-Aug-09 07:31N 48°06' W 004°19'0 0.0
2019-Aug-09 07:00N 48°06' W 004°19'0 0.0
2019-Aug-09 06:30N 48°06' W 004°19'0 0.0
2019-Aug-09 06:01N 48°06' W 004°19'0 0.0
2019-Aug-09 05:31N 48°06' W 004°19'0 0.0
2019-Aug-09 05:00N 48°06' W 004°19'0 0.0
2019-Aug-09 04:31N 48°06' W 004°19'0 0.0
2019-Aug-09 04:01N 48°06' W 004°19'0 0.0
2019-Aug-09 03:30N 48°06' W 004°19'0 0.0
2019-Aug-09 03:00N 48°06' W 004°19'0 0.0
2019-Aug-09 02:00N 48°06' W 004°19'0 0.0
2019-Aug-09 01:30N 48°06' W 004°19'  

Dump ship's entire track history